Huvudsida
METAR-TAF:

METAR-TAF

Flygplatser :

Providenciales, Turks- och Caicosöarna

latitud: 21-46-25N, longitud: 072-15-57W, höjd: 5 m

Aktuellt väderrapport

Denna rapport gjordes för 2 timmar och 2 minuter sedan, klockan 19:00 UTC
Vind 5 kt från sydost
Temperatur 28°C
Fuktighet 70%
Tryck 1016 hPa
Sikt 10 km eller mer
Spridda moln på en höjd av 1500 ft

METAR: MBPV 111900Z 13005KT 9999 SCT015 28/22 Q1016

Tid: 17:02 (21:02 UTC)

Väderprognos

Denna rapport gjordes för 10 timmar och 12 minuter sedan, klockan 10:50 UTC
Prognos gäller från 11 kl. 12 UTC till 12 kl. 12 UTC
Vind 10 kt från syd/sydost
Sikt: 8000 m
Spridda moln på en höjd av 1500 ft
Spridda moln på en höjd av 4000 ft
regnskurar
Från 11 kl. 1800 UTC
Vind 10 kt från syd/sydost
Sikt 10 km eller mer
Spridda moln på en höjd av 1600 ft
Brutna moln på en höjd av 5000 ft
skurar i närheten

TAF: MBPV 111050Z 1112/1212 16010KT 8000 SHRA SCT015 SCT040 FM111800Z 15010KT 9999 VCSH SCT016 BKN050

Aktuella väderrapporter och prognoser från 4000 flygplatser (METAR- och TAF-rapporter).

De tillgängliga stationerna syns som gula och röda prickar på kartan.

För musen över prickarna för att se namnen på stationerna.

Klicka sedan för att få väderrapporter och prognoser.

För att ändra kartan: Klicka på de gröna knapparna med ett svart kors på för att zooma in; den gröna knappen med ett streck på för att zooma ut; eller på de gröna pilarna för angränsande kartor.


METAR-TAF: